sensor_id;sensor_type;location;lat;lon;timestamp;pressure;altitude;pressure_sealevel;temperature;humidity
30021;BME280;16861;52.294;7.760;2023-01-05T00:00:07;99486.41;;;12.32;77.97
30021;BME280;16861;52.294;7.760;2023-01-05T00:02:34;99486.53;;;12.31;78.01
30021;BME280;16861;52.294;7.760;2023-01-05T00:05:00;99495.28;;;12.31;78.05
30021;BME280;16861;52.294;7.760;2023-01-05T00:07:26;99475.97;;;12.31;78.01
30021;BME280;16861;52.294;7.760;2023-01-05T00:09:53;99475.09;;;12.30;77.79
30021;BME280;16861;52.294;7.760;2023-01-05T00:12:19;99483.16;;;12.29;77.61
30021;BME280;16861;52.294;7.760;2023-01-05T00:15:05;99478.69;;;12.29;77.82
30021;BME280;16861;52.294;7.760;2023-01-05T00:17:51;99482.19;;;12.30;77.81
30021;BME280;16861;52.294;7.760;2023-01-05T00:20:36;99492.75;;;12.30;77.69
30021;BME280;16861;52.294;7.760;2023-01-05T00:23:21;99491.19;;;12.27;77.65
30021;BME280;16861;52.294;7.760;2023-01-05T00:25:47;99485.78;;;12.29;77.77
30021;BME280;16861;52.294;7.760;2023-01-05T00:28:13;99496.44;;;12.27;77.41
30021;BME280;16861;52.294;7.760;2023-01-05T00:30:42;99488.63;;;12.25;77.17
30021;BME280;16861;52.294;7.760;2023-01-05T00:33:14;99481.78;;;12.23;76.63
30021;BME280;16861;52.294;7.760;2023-01-05T00:35:41;99484.41;;;12.23;77.30
30021;BME280;16861;52.294;7.760;2023-01-05T00:38:08;99481.03;;;12.21;77.25
30021;BME280;16861;52.294;7.760;2023-01-05T00:40:35;99480.28;;;12.19;77.20
30021;BME280;16861;52.294;7.760;2023-01-05T00:43:02;99490.84;;;12.19;77.50
30021;BME280;16861;52.294;7.760;2023-01-05T00:45:28;99484.72;;;12.18;77.60
30021;BME280;16861;52.294;7.760;2023-01-05T00:47:55;99488.31;;;12.17;77.83
30021;BME280;16861;52.294;7.760;2023-01-05T00:50:22;99503.28;;;12.17;77.60
30021;BME280;16861;52.294;7.760;2023-01-05T00:52:48;99493.69;;;12.16;77.65
30021;BME280;16861;52.294;7.760;2023-01-05T00:55:15;99498.00;;;12.17;77.67
30021;BME280;16861;52.294;7.760;2023-01-05T00:57:41;99519.88;;;12.19;77.77
30021;BME280;16861;52.294;7.760;2023-01-05T01:00:12;99506.69;;;12.19;77.16
30021;BME280;16861;52.294;7.760;2023-01-05T01:02:39;99511.88;;;12.20;77.49
30021;BME280;16861;52.294;7.760;2023-01-05T01:05:06;99521.56;;;12.20;77.82
30021;BME280;16861;52.294;7.760;2023-01-05T01:07:33;99510.03;;;12.21;77.74
30021;BME280;16861;52.294;7.760;2023-01-05T01:09:59;99522.41;;;12.20;77.55
30021;BME280;16861;52.294;7.760;2023-01-05T01:12:25;99518.06;;;12.19;77.58
30021;BME280;16861;52.294;7.760;2023-01-05T01:14:52;99527.78;;;12.19;77.45
30021;BME280;16861;52.294;7.760;2023-01-05T01:17:18;99516.38;;;12.18;77.37
30021;BME280;16861;52.294;7.760;2023-01-05T01:19:44;99516.28;;;12.20;77.55
30021;BME280;16861;52.294;7.760;2023-01-05T01:22:12;99510.28;;;12.18;77.44
30021;BME280;16861;52.294;7.760;2023-01-05T01:24:39;99521.66;;;12.18;77.61
30021;BME280;16861;52.294;7.760;2023-01-05T01:27:05;99518.06;;;12.19;77.45
30021;BME280;16861;52.294;7.760;2023-01-05T01:29:32;99518.06;;;12.19;77.50
30021;BME280;16861;52.294;7.760;2023-01-05T01:31:59;99520.69;;;12.19;77.50
30021;BME280;16861;52.294;7.760;2023-01-05T01:34:25;99520.59;;;12.21;77.56
30021;BME280;16861;52.294;7.760;2023-01-05T01:36:54;99518.81;;;12.21;77.27
30021;BME280;16861;52.294;7.760;2023-01-05T01:39:21;99538.97;;;12.22;77.48
30021;BME280;16861;52.294;7.760;2023-01-05T01:41:47;99536.34;;;12.22;77.23
30021;BME280;16861;52.294;7.760;2023-01-05T01:50:30;99546.16;;;12.20;75.90
30021;BME280;16861;52.294;7.760;2023-01-05T01:53:02;99553.22;;;12.20;76.64
30021;BME280;16861;52.294;7.760;2023-01-05T01:55:31;99553.22;;;12.20;77.13
30021;BME280;16861;52.294;7.760;2023-01-05T01:57:58;99557.78;;;12.18;77.15
30021;BME280;16861;52.294;7.760;2023-01-05T02:00:26;99564.84;;;12.17;77.18
30021;BME280;16861;52.294;7.760;2023-01-05T02:02:54;99571.16;;;12.15;77.28
30021;BME280;16861;52.294;7.760;2023-01-05T02:05:24;99566.94;;;12.12;76.88
30021;BME280;16861;52.294;7.760;2023-01-05T02:07:52;99566.94;;;12.12;77.23
30021;BME280;16861;52.294;7.760;2023-01-05T02:10:35;99566.50;;;12.05;76.21
30021;BME280;16861;52.294;7.760;2023-01-05T02:16:04;99556.84;;;12.04;76.83
30021;BME280;16861;52.294;7.760;2023-01-05T02:18:42;99562.34;;;12.01;76.49
30021;BME280;16861;52.294;7.760;2023-01-05T02:21:24;99566.84;;;11.99;76.36
30021;BME280;16861;52.294;7.760;2023-01-05T02:24:03;99564.97;;;12.01;77.72
30021;BME280;16861;52.294;7.760;2023-01-05T02:32:40;99572.38;;;11.96;76.55
30021;BME280;16861;52.294;7.760;2023-01-05T02:35:37;99563.78;;;11.92;76.57
30021;BME280;16861;52.294;7.760;2023-01-05T02:40:39;99584.78;;;11.94;77.28
30021;BME280;16861;52.294;7.760;2023-01-05T02:43:08;99576.03;;;11.93;77.63
30021;BME280;16861;52.294;7.760;2023-01-05T02:45:35;99579.72;;;11.91;77.55
30021;BME280;16861;52.294;7.760;2023-01-05T02:48:02;99573.59;;;11.90;77.87
30021;BME280;16861;52.294;7.760;2023-01-05T02:51:00;99581.81;;;11.85;76.94
30021;BME280;16861;52.294;7.760;2023-01-05T02:53:38;99579.06;;;11.87;77.20
30021;BME280;16861;52.294;7.760;2023-01-05T02:56:13;99577.47;;;11.84;77.30
30021;BME280;16861;52.294;7.760;2023-01-05T02:58:47;99585.41;;;11.84;77.58
30021;BME280;16861;52.294;7.760;2023-01-05T03:04:18;99582.84;;;11.83;77.52
30021;BME280;16861;52.294;7.760;2023-01-05T03:06:50;99583.72;;;11.83;77.54
30021;BME280;16861;52.294;7.760;2023-01-05T03:09:24;99586.44;;;11.82;77.72
30021;BME280;16861;52.294;7.760;2023-01-05T03:12:29;99580.50;;;11.78;77.14
30021;BME280;16861;52.294;7.760;2023-01-05T03:17:53;99586.63;;;11.79;77.64
30021;BME280;16861;52.294;7.760;2023-01-05T03:20:25;99600.88;;;11.76;77.57
30021;BME280;16861;52.294;7.760;2023-01-05T03:22:54;99595.59;;;11.76;77.76
30021;BME280;16861;52.294;7.760;2023-01-05T03:25:40;99589.69;;;11.72;77.49
30021;BME280;16861;52.294;7.760;2023-01-05T03:28:35;99595.25;;;11.68;77.39
30021;BME280;16861;52.294;7.760;2023-01-05T03:37:30;99598.06;;;11.65;77.77
30021;BME280;16861;52.294;7.760;2023-01-05T03:39:59;99610.31;;;11.66;78.23
30021;BME280;16861;52.294;7.760;2023-01-05T03:42:28;99613.16;;;11.63;78.09
30021;BME280;16861;52.294;7.760;2023-01-05T03:44:55;99619.38;;;11.62;78.28
30021;BME280;16861;52.294;7.760;2023-01-05T03:47:22;99615.88;;;11.61;78.37
30021;BME280;16861;52.294;7.760;2023-01-05T03:49:49;99618.59;;;11.59;78.45
30021;BME280;16861;52.294;7.760;2023-01-05T03:52:17;99619.56;;;11.58;78.45
30021;BME280;16861;52.294;7.760;2023-01-05T03:54:43;99608.25;;;11.56;78.49
30021;BME280;16861;52.294;7.760;2023-01-05T03:57:10;99617.00;;;11.57;78.55
30021;BME280;16861;52.294;7.760;2023-01-05T03:59:36;99626.81;;;11.55;78.52
30021;BME280;16861;52.294;7.760;2023-01-05T04:02:03;99615.44;;;11.54;78.49
30021;BME280;16861;52.294;7.760;2023-01-05T04:04:30;99623.34;;;11.54;78.51
30021;BME280;16861;52.294;7.760;2023-01-05T04:06:56;99621.75;;;11.52;78.57
30021;BME280;16861;52.294;7.760;2023-01-05T04:09:23;99613.84;;;11.52;78.51
30021;BME280;16861;52.294;7.760;2023-01-05T04:11:49;99625.31;;;11.51;78.56
30021;BME280;16861;52.294;7.760;2023-01-05T04:14:16;99629.75;;;11.50;78.57
30021;BME280;16861;52.294;7.760;2023-01-05T04:16:42;99626.38;;;11.48;78.74
30021;BME280;16861;52.294;7.760;2023-01-05T04:19:09;99636.91;;;11.48;79.01
30021;BME280;16861;52.294;7.760;2023-01-05T04:21:36;99633.50;;;11.46;78.87
30021;BME280;16861;52.294;7.760;2023-01-05T04:24:02;99638.78;;;11.46;78.93
30021;BME280;16861;52.294;7.760;2023-01-05T04:26:29;99624.75;;;11.45;78.97
30021;BME280;16861;52.294;7.760;2023-01-05T04:28:55;99645.00;;;11.45;78.94
30021;BME280;16861;52.294;7.760;2023-01-05T04:31:22;99637.94;;;11.45;79.14
30021;BME280;16861;52.294;7.760;2023-01-05T04:33:48;99652.91;;;11.45;79.18
30021;BME280;16861;52.294;7.760;2023-01-05T04:36:15;99655.47;;;11.46;79.14
30021;BME280;16861;52.294;7.760;2023-01-05T04:38:41;99658.09;;;11.46;79.13
30021;BME280;16861;52.294;7.760;2023-01-05T04:41:08;99651.88;;;11.47;79.31
30021;BME280;16861;52.294;7.760;2023-01-05T04:43:35;99658.00;;;11.48;79.07
30021;BME280;16861;52.294;7.760;2023-01-05T04:46:01;99658.00;;;11.48;79.36
30021;BME280;16861;52.294;7.760;2023-01-05T04:48:28;99666.72;;;11.49;79.14
30021;BME280;16861;52.294;7.760;2023-01-05T04:50:58;99664.97;;;11.49;79.11
30021;BME280;16861;52.294;7.760;2023-01-05T04:53:24;99669.28;;;11.50;79.15
30021;BME280;16861;52.294;7.760;2023-01-05T04:55:51;99661.38;;;11.50;79.08
30021;BME280;16861;52.294;7.760;2023-01-05T04:58:18;99669.28;;;11.50;78.91
30021;BME280;16861;52.294;7.760;2023-01-05T05:00:44;99664.00;;;11.50;79.13
30021;BME280;16861;52.294;7.760;2023-01-05T05:03:11;99664.97;;;11.49;79.09
30021;BME280;16861;52.294;7.760;2023-01-05T05:05:37;99674.66;;;11.49;79.21
30021;BME280;16861;52.294;7.760;2023-01-05T05:08:04;99677.28;;;11.49;79.13
30021;BME280;16861;52.294;7.760;2023-01-05T05:10:31;99674.66;;;11.49;79.08
30021;BME280;16861;52.294;7.760;2023-01-05T05:12:57;99667.69;;;11.47;79.04
30021;BME280;16861;52.294;7.760;2023-01-05T05:15:24;99679.09;;;11.48;79.27
30021;BME280;16861;52.294;7.760;2023-01-05T05:17:50;99676.53;;;11.46;79.20
30021;BME280;16861;52.294;7.760;2023-01-05T05:20:17;99678.22;;;11.47;79.21
30021;BME280;16861;52.294;7.760;2023-01-05T05:22:44;99691.41;;;11.47;79.38
30021;BME280;16861;52.294;7.760;2023-01-05T05:25:11;99678.22;;;11.47;79.20
30021;BME280;16861;52.294;7.760;2023-01-05T05:27:38;99693.19;;;11.47;79.38
30021;BME280;16861;52.294;7.760;2023-01-05T05:30:05;99687.00;;;11.48;79.41
30021;BME280;16861;52.294;7.760;2023-01-05T05:32:31;99686.03;;;11.49;79.32
30021;BME280;16861;52.294;7.760;2023-01-05T05:34:58;99676.31;;;11.50;79.52
30021;BME280;16861;52.294;7.760;2023-01-05T05:37:24;99683.31;;;11.51;79.45
30021;BME280;16861;52.294;7.760;2023-01-05T05:39:51;99684.16;;;11.51;79.42
30021;BME280;16861;52.294;7.760;2023-01-05T05:42:17;99695.53;;;11.52;79.29
30021;BME280;16861;52.294;7.760;2023-01-05T05:44:44;99692.81;;;11.53;79.40
30021;BME280;16861;52.294;7.760;2023-01-05T05:47:10;99692.81;;;11.53;79.36
30021;BME280;16861;52.294;7.760;2023-01-05T05:49:37;99694.50;;;11.54;79.57
30021;BME280;16861;52.294;7.760;2023-01-05T05:52:03;99697.16;;;11.54;79.15
30021;BME280;16861;52.294;7.760;2023-01-05T05:54:30;99703.16;;;11.56;79.28
30021;BME280;16861;52.294;7.760;2023-01-05T05:56:57;99704.00;;;11.57;79.35
30021;BME280;16861;52.294;7.760;2023-01-05T05:59:23;99701.38;;;11.57;79.17
30021;BME280;16861;52.294;7.760;2023-01-05T06:01:50;99710.06;;;11.59;79.16
30021;BME280;16861;52.294;7.760;2023-01-05T06:04:18;99717.09;;;11.58;79.22
30021;BME280;16861;52.294;7.760;2023-01-05T06:06:44;99713.50;;;11.59;79.16
30021;BME280;16861;52.294;7.760;2023-01-05T06:09:11;99724.06;;;11.59;79.26
30021;BME280;16861;52.294;7.760;2023-01-05T06:11:37;99718.78;;;11.59;79.07
30021;BME280;16861;52.294;7.760;2023-01-05T06:14:04;99731.16;;;11.59;79.12
30021;BME280;16861;52.294;7.760;2023-01-05T06:16:32;99728.50;;;11.59;79.42
30021;BME280;16861;52.294;7.760;2023-01-05T06:18:59;99731.22;;;11.57;79.31
30021;BME280;16861;52.294;7.760;2023-01-05T06:21:26;99742.69;;;11.56;79.41
30021;BME280;16861;52.294;7.760;2023-01-05T06:23:52;99741.00;;;11.55;79.19
30021;BME280;16861;52.294;7.760;2023-01-05T06:26:19;99734.06;;;11.54;79.28
30021;BME280;16861;52.294;7.760;2023-01-05T06:28:45;99747.31;;;11.53;79.18
30021;BME280;16861;52.294;7.760;2023-01-05T06:31:12;99746.50;;;11.52;79.51
30021;BME280;16861;52.294;7.760;2023-01-05T06:33:38;99757.88;;;11.53;79.42
30021;BME280;16861;52.294;7.760;2023-01-05T06:36:05;99757.94;;;11.51;79.57
30021;BME280;16861;52.294;7.760;2023-01-05T06:38:32;99763.22;;;11.51;79.44
30021;BME280;16861;52.294;7.760;2023-01-05T06:40:59;99770.31;;;11.51;79.54
30021;BME280;16861;52.294;7.760;2023-01-05T06:43:25;99766.81;;;11.50;79.56
30021;BME280;16861;52.294;7.760;2023-01-05T06:45:52;99770.41;;;11.49;79.65
30021;BME280;16861;52.294;7.760;2023-01-05T06:48:19;99774.81;;;11.49;79.56
30021;BME280;16861;52.294;7.760;2023-01-05T06:50:45;99780.00;;;11.50;79.56
30021;BME280;16861;52.294;7.760;2023-01-05T06:53:12;99780.84;;;11.51;79.80
30021;BME280;16861;52.294;7.760;2023-01-05T06:55:39;99786.22;;;11.49;79.78
30021;BME280;16861;52.294;7.760;2023-01-05T06:58:06;99788.75;;;11.51;79.76
30021;BME280;16861;52.294;7.760;2023-01-05T07:00:32;99791.41;;;11.51;79.46
30021;BME280;16861;52.294;7.760;2023-01-05T07:02:59;99791.41;;;11.51;79.76
30021;BME280;16861;52.294;7.760;2023-01-05T07:05:26;99786.94;;;11.51;79.64
30021;BME280;16861;52.294;7.760;2023-01-05T07:07:53;99795.72;;;11.52;79.74
30021;BME280;16861;52.294;7.760;2023-01-05T07:10:19;99800.13;;;11.51;79.67
30021;BME280;16861;52.294;7.760;2023-01-05T07:12:46;99793.94;;;11.52;79.81
30021;BME280;16861;52.294;7.760;2023-01-05T07:15:12;99803.53;;;11.53;79.70
30021;BME280;16861;52.294;7.760;2023-01-05T07:17:39;99807.13;;;11.52;79.41
30021;BME280;16861;52.294;7.760;2023-01-05T07:20:06;99814.09;;;11.53;79.62
30021;BME280;16861;52.294;7.760;2023-01-05T07:22:33;99817.53;;;11.54;79.78
30021;BME280;16861;52.294;7.760;2023-01-05T07:25:00;99820.09;;;11.55;79.78
30021;BME280;16861;52.294;7.760;2023-01-05T07:27:26;99829.81;;;11.55;79.78
30021;BME280;16861;52.294;7.760;2023-01-05T07:29:53;99822.66;;;11.57;79.66
30021;BME280;16861;52.294;7.760;2023-01-05T07:32:19;99819.91;;;11.58;79.82
30021;BME280;16861;52.294;7.760;2023-01-05T07:34:46;99831.41;;;11.57;79.88
30021;BME280;16861;52.294;7.760;2023-01-05T07:37:21;99827.84;;;11.58;79.56
30021;BME280;16861;52.294;7.760;2023-01-05T07:39:50;99829.53;;;11.59;79.69
30021;BME280;16861;52.294;7.760;2023-01-05T07:42:17;99836.47;;;11.60;79.49
30021;BME280;16861;52.294;7.760;2023-01-05T07:44:43;99830.38;;;11.60;79.47
30021;BME280;16861;52.294;7.760;2023-01-05T07:47:10;99833.09;;;11.58;79.52
30021;BME280;16861;52.294;7.760;2023-01-05T07:49:37;99836.59;;;11.59;79.68
30021;BME280;16861;52.294;7.760;2023-01-05T07:52:04;99848.84;;;11.60;79.74
30021;BME280;16861;52.294;7.760;2023-01-05T07:54:30;99853.16;;;11.61;79.73
30021;BME280;16861;52.294;7.760;2023-01-05T07:56:57;99855.72;;;11.63;79.79
30021;BME280;16861;52.294;7.760;2023-01-05T07:59:23;99853.94;;;11.63;79.60
30021;BME280;16861;52.294;7.760;2023-01-05T08:01:50;99856.44;;;11.65;79.53
30021;BME280;16861;52.294;7.760;2023-01-05T08:04:16;99867.84;;;11.65;79.64
30021;BME280;16861;52.294;7.760;2023-01-05T08:06:43;99856.44;;;11.65;79.67
30021;BME280;16861;52.294;7.760;2023-01-05T08:09:10;99868.72;;;11.66;79.50
30021;BME280;16861;52.294;7.760;2023-01-05T08:11:55;99870.41;;;11.67;79.47
30021;BME280;16861;52.294;7.760;2023-01-05T08:14:21;99870.41;;;11.67;79.57
30021;BME280;16861;52.294;7.760;2023-01-05T08:16:48;99878.31;;;11.67;79.67
30021;BME280;16861;52.294;7.760;2023-01-05T08:19:15;99880.00;;;11.68;79.71
30021;BME280;16861;52.294;7.760;2023-01-05T08:21:41;99885.28;;;11.68;79.53
30021;BME280;16861;52.294;7.760;2023-01-05T08:24:08;99891.41;;;11.68;79.48
30021;BME280;16861;52.294;7.760;2023-01-05T08:26:34;99899.31;;;11.68;79.58
30021;BME280;16861;52.294;7.760;2023-01-05T08:29:01;99893.19;;;11.68;79.87
30021;BME280;16861;52.294;7.760;2023-01-05T08:31:29;99902.78;;;11.69;79.34
30021;BME280;16861;52.294;7.760;2023-01-05T08:33:57;99908.06;;;11.69;79.47
30021;BME280;16861;52.294;7.760;2023-01-05T08:36:26;99907.97;;;11.70;79.50
30021;BME280;16861;52.294;7.760;2023-01-05T08:38:53;99907.16;;;11.70;79.52
30021;BME280;16861;52.294;7.760;2023-01-05T08:41:24;99913.34;;;11.69;79.19
30021;BME280;16861;52.294;7.760;2023-01-05T08:43:55;99915.88;;;11.70;79.48
30021;BME280;16861;52.294;7.760;2023-01-05T08:46:24;99923.72;;;11.72;79.39
30021;BME280;16861;52.294;7.760;2023-01-05T08:48:54;99922.84;;;11.71;79.32
30021;BME280;16861;52.294;7.760;2023-01-05T08:51:21;99928.03;;;11.73;79.62
30021;BME280;16861;52.294;7.760;2023-01-05T08:53:48;99932.41;;;11.74;79.68
30021;BME280;16861;52.294;7.760;2023-01-05T08:56:14;99933.22;;;11.75;79.55
30021;BME280;16861;52.294;7.760;2023-01-05T08:58:41;99941.13;;;11.75;79.59
30021;BME280;16861;52.294;7.760;2023-01-05T09:01:09;99952.53;;;11.75;79.62
30021;BME280;16861;52.294;7.760;2023-01-05T12:11:31;100101.06;;;12.08;78.56
30021;BME280;16861;52.294;7.760;2023-01-05T12:14:15;100102.84;;;12.07;78.32
30021;BME280;16861;52.294;7.760;2023-01-05T12:16:52;100098.34;;;12.09;79.11
30021;BME280;16861;52.294;7.760;2023-01-05T12:19:40;100097.41;;;12.10;77.82
30021;BME280;16861;52.294;7.760;2023-01-05T12:27:45;100094.19;;;12.05;77.46
30021;BME280;16861;52.294;7.760;2023-01-05T12:42:34;100118.13;;;12.01;77.71
30021;BME280;16861;52.294;7.760;2023-01-05T12:48:12;100118.75;;;12.06;79.20
30021;BME280;16861;52.294;7.760;2023-01-05T12:56:02;100124.59;;;12.11;78.76
30021;BME280;16861;52.294;7.760;2023-01-05T12:58:40;100125.47;;;12.11;78.27
30021;BME280;16861;52.294;7.760;2023-01-05T13:01:16;100125.47;;;12.11;78.54
30021;BME280;16861;52.294;7.760;2023-01-05T13:03:55;100128.88;;;12.14;78.31
30021;BME280;16861;52.294;7.760;2023-01-05T13:06:23;100123.31;;;12.18;79.35
30021;BME280;16861;52.294;7.760;2023-01-05T13:09:08;100124.28;;;12.17;78.84
30021;BME280;16861;52.294;7.760;2023-01-05T13:11:46;100125.13;;;12.18;78.21
30021;BME280;16861;52.294;7.760;2023-01-05T13:14:17;100126.75;;;12.20;78.77
30021;BME280;16861;52.294;7.760;2023-01-05T13:16:58;100118.22;;;12.15;77.82
30021;BME280;16861;52.294;7.760;2023-01-05T13:19:43;100126.25;;;12.14;78.08
30021;BME280;16861;52.294;7.760;2023-01-05T13:22:29;100132.44;;;12.12;77.99
30021;BME280;16861;52.294;7.760;2023-01-05T13:25:07;100138.50;;;12.15;78.41
30021;BME280;16861;52.294;7.760;2023-01-05T13:27:40;100134.06;;;12.15;79.18
30021;BME280;16861;52.294;7.760;2023-01-05T13:30:18;100136.88;;;12.12;78.63
30021;BME280;16861;52.294;7.760;2023-01-05T13:51:45;100153.63;;;12.11;78.05
30021;BME280;16861;52.294;7.760;2023-01-05T13:54:33;100156.28;;;12.11;77.89
30021;BME280;16861;52.294;7.760;2023-01-05T13:57:23;100162.34;;;12.13;78.65
30021;BME280;16861;52.294;7.760;2023-01-05T13:59:54;100165.63;;;12.17;78.95
30021;BME280;16861;52.294;7.760;2023-01-05T14:02:39;100158.66;;;12.16;79.00
30021;BME280;16861;52.294;7.760;2023-01-05T14:05:23;100163.19;;;12.14;78.28
30021;BME280;16861;52.294;7.760;2023-01-05T14:07:53;100161.22;;;12.17;79.18
30021;BME280;16861;52.294;7.760;2023-01-05T14:10:26;100161.38;;;12.14;78.38
30021;BME280;16861;52.294;7.760;2023-01-05T14:12:54;100167.34;;;12.18;79.04
30021;BME280;16861;52.294;7.760;2023-01-05T14:18:00;100166.66;;;12.14;78.91
30021;BME280;16861;52.294;7.760;2023-01-05T14:22:57;100166.84;;;12.11;78.96
30021;BME280;16861;52.294;7.760;2023-01-05T14:36:41;100177.66;;;12.06;78.60
30021;BME280;16861;52.294;7.760;2023-01-05T14:41:37;100176.84;;;12.04;78.80
30021;BME280;16861;52.294;7.760;2023-01-05T14:44:20;100185.88;;;12.00;78.05
30021;BME280;16861;52.294;7.760;2023-01-05T14:46:54;100181.47;;;12.01;78.51
30021;BME280;16861;52.294;7.760;2023-01-05T14:49:37;100191.16;;;12.00;77.72
30021;BME280;16861;52.294;7.760;2023-01-05T14:52:09;100186.56;;;12.04;78.73
30021;BME280;16861;52.294;7.760;2023-01-05T14:59:56;100199.06;;;12.00;78.31
30021;BME280;16861;52.294;7.760;2023-01-05T15:02:30;100188.50;;;12.00;78.32
30021;BME280;16861;52.294;7.760;2023-01-05T15:05:05;100187.75;;;11.98;78.01
30021;BME280;16861;52.294;7.760;2023-01-05T15:07:57;100191.34;;;11.97;77.87
30021;BME280;16861;52.294;7.760;2023-01-05T15:13:48;100197.66;;;11.94;77.90
30021;BME280;16861;52.294;7.760;2023-01-05T15:17:01;100196.78;;;11.94;77.85
30021;BME280;16861;52.294;7.760;2023-01-05T15:28:15;100190.13;;;11.86;77.70
30021;BME280;16861;52.294;7.760;2023-01-05T15:34:37;100192.69;;;11.88;77.58
30021;BME280;16861;52.294;7.760;2023-01-05T15:37:10;100190.34;;;11.83;77.60
30021;BME280;16861;52.294;7.760;2023-01-05T15:39:50;100198.25;;;11.83;78.16
30021;BME280;16861;52.294;7.760;2023-01-05T15:42:39;100193.13;;;11.80;78.10
30021;BME280;16861;52.294;7.760;2023-01-05T15:45:17;100199.28;;;11.81;78.14
30021;BME280;16861;52.294;7.760;2023-01-05T15:47:44;100192.97;;;11.83;79.17
30021;BME280;16861;52.294;7.760;2023-01-05T15:50:19;100195.75;;;11.80;78.73
30021;BME280;16861;52.294;7.760;2023-01-05T15:52:57;100187.19;;;11.77;78.41
30021;BME280;16861;52.294;7.760;2023-01-05T15:55:25;100196.63;;;11.81;79.09
30021;BME280;16861;52.294;7.760;2023-01-05T15:58:02;100201.13;;;11.79;77.96
30021;BME280;16861;52.294;7.760;2023-01-05T16:00:33;100199.34;;;11.79;78.73
30021;BME280;16861;52.294;7.760;2023-01-05T16:02:59;100207.25;;;11.79;79.16
30021;BME280;16861;52.294;7.760;2023-01-05T16:05:28;100205.53;;;11.78;78.83
30021;BME280;16861;52.294;7.760;2023-01-05T16:08:01;100208.28;;;11.77;78.67
30021;BME280;16861;52.294;7.760;2023-01-05T16:10:41;100217.03;;;11.77;78.44
30021;BME280;16861;52.294;7.760;2023-01-05T16:15:43;100213.63;;;11.75;78.51
30021;BME280;16861;52.294;7.760;2023-01-05T16:18:16;100197.09;;;11.71;78.47
30021;BME280;16861;52.294;7.760;2023-01-05T16:20:45;100211.06;;;11.73;78.51
30021;BME280;16861;52.294;7.760;2023-01-05T16:23:20;100212.09;;;11.71;77.77
30021;BME280;16861;52.294;7.760;2023-01-05T16:25:55;100203.31;;;11.70;78.03
30021;BME280;16861;52.294;7.760;2023-01-05T16:28:23;100208.53;;;11.72;78.50
30021;BME280;16861;52.294;7.760;2023-01-05T16:30:52;100201.56;;;11.71;78.50
30021;BME280;16861;52.294;7.760;2023-01-05T16:33:29;100205.22;;;11.68;77.75
30021;BME280;16861;52.294;7.760;2023-01-05T16:36:16;100199.16;;;11.66;77.55
30021;BME280;16861;52.294;7.760;2023-01-05T16:38:44;100201.56;;;11.71;78.61
30021;BME280;16861;52.294;7.760;2023-01-05T16:41:12;100200.78;;;11.69;78.65
30021;BME280;16861;52.294;7.760;2023-01-05T16:48:50;100211.59;;;11.64;77.93
30021;BME280;16861;52.294;7.760;2023-01-05T16:51:22;100210.72;;;11.64;77.58
30021;BME280;16861;52.294;7.760;2023-01-05T16:53:55;100210.81;;;11.62;77.71
30021;BME280;16861;52.294;7.760;2023-01-05T16:59:03;100210.72;;;11.64;77.77
30021;BME280;16861;52.294;7.760;2023-01-05T17:01:43;100203.16;;;11.57;77.47
30021;BME280;16861;52.294;7.760;2023-01-05T17:04:14;100198.56;;;11.61;78.64
30021;BME280;16861;52.294;7.760;2023-01-05T17:06:44;100200.53;;;11.57;78.18
30021;BME280;16861;52.294;7.760;2023-01-05T17:09:24;100201.53;;;11.55;77.30
30021;BME280;16861;52.294;7.760;2023-01-05T17:11:52;100199.50;;;11.60;78.71
30021;BME280;16861;52.294;7.760;2023-01-05T17:14:19;100203.16;;;11.57;78.76
30021;BME280;16861;52.294;7.760;2023-01-05T17:16:46;100187.34;;;11.57;78.87
30021;BME280;16861;52.294;7.760;2023-01-05T17:19:15;100187.34;;;11.57;78.27
30021;BME280;16861;52.294;7.760;2023-01-05T17:21:47;100185.53;;;11.58;78.45
30021;BME280;16861;52.294;7.760;2023-01-05T17:24:16;100187.25;;;11.59;78.72
30021;BME280;16861;52.294;7.760;2023-01-05T17:26:43;100192.53;;;11.59;78.45
30021;BME280;16861;52.294;7.760;2023-01-05T17:29:25;100197.97;;;11.56;77.33
30021;BME280;16861;52.294;7.760;2023-01-05T17:31:52;100190.72;;;11.59;78.26
30021;BME280;16861;52.294;7.760;2023-01-05T17:34:19;100192.59;;;11.57;78.50
30021;BME280;16861;52.294;7.760;2023-01-05T17:36:47;100198.78;;;11.56;78.45
30021;BME280;16861;52.294;7.760;2023-01-05T17:39:18;100193.63;;;11.55;78.04
30021;BME280;16861;52.294;7.760;2023-01-05T17:41:45;100198.78;;;11.56;78.36
30021;BME280;16861;52.294;7.760;2023-01-05T17:44:12;100184.84;;;11.54;78.62
30021;BME280;16861;52.294;7.760;2023-01-05T17:46:41;100191.06;;;11.53;78.30
30021;BME280;16861;52.294;7.760;2023-01-05T17:49:19;100192.94;;;11.51;77.56
30021;BME280;16861;52.294;7.760;2023-01-05T17:51:46;100186.75;;;11.52;78.47
30021;BME280;16861;52.294;7.760;2023-01-05T17:54:13;100185.88;;;11.52;78.59
30021;BME280;16861;52.294;7.760;2023-01-05T17:56:39;100189.47;;;11.51;78.55
30021;BME280;16861;52.294;7.760;2023-01-05T17:59:06;100186.03;;;11.49;78.43
30021;BME280;16861;52.294;7.760;2023-01-05T18:01:32;100190.47;;;11.48;78.42
30021;BME280;16861;52.294;7.760;2023-01-05T18:03:59;100186.13;;;11.47;78.44
30021;BME280;16861;52.294;7.760;2023-01-05T18:06:26;100189.69;;;11.46;78.55
30021;BME280;16861;52.294;7.760;2023-01-05T18:08:53;100181.78;;;11.46;78.63
30021;BME280;16861;52.294;7.760;2023-01-05T18:14:37;100172.94;;;11.47;78.68
30021;BME280;16861;52.294;7.760;2023-01-05T18:17:09;100179.94;;;11.48;78.89
30021;BME280;16861;52.294;7.760;2023-01-05T18:19:35;100179.94;;;11.48;78.83
30021;BME280;16861;52.294;7.760;2023-01-05T18:22:02;100179.06;;;11.47;78.57
30021;BME280;16861;52.294;7.760;2023-01-05T18:24:29;100175.56;;;11.47;78.51
30021;BME280;16861;52.294;7.760;2023-01-05T18:26:56;100184.41;;;11.46;78.49
30021;BME280;16861;52.294;7.760;2023-01-05T18:29:23;100183.66;;;11.44;78.43